sensor_id;sensor_type;location;lat;lon;timestamp;temperature;humidity
13880;DHT22;7010;48.200;16.332;2023-02-01T00:01:29;4.30;99.90
13880;DHT22;7010;48.200;16.332;2023-02-01T00:03:57;4.30;99.90
13880;DHT22;7010;48.200;16.332;2023-02-01T00:06:26;4.30;99.90
13880;DHT22;7010;48.200;16.332;2023-02-01T00:08:55;4.30;99.90
13880;DHT22;7010;48.200;16.332;2023-02-01T00:11:23;4.30;99.90
13880;DHT22;7010;48.200;16.332;2023-02-01T00:13:53;4.30;99.90
13880;DHT22;7010;48.200;16.332;2023-02-01T00:16:23;4.40;99.90
13880;DHT22;7010;48.200;16.332;2023-02-01T00:18:57;4.30;99.90
13880;DHT22;7010;48.200;16.332;2023-02-01T00:21:26;4.30;99.90
13880;DHT22;7010;48.200;16.332;2023-02-01T00:23:54;4.30;99.90
13880;DHT22;7010;48.200;16.332;2023-02-01T00:26:26;4.30;99.90
13880;DHT22;7010;48.200;16.332;2023-02-01T00:28:55;4.30;99.90
13880;DHT22;7010;48.200;16.332;2023-02-01T00:31:23;4.40;99.90
13880;DHT22;7010;48.200;16.332;2023-02-01T00:33:56;4.40;99.90
13880;DHT22;7010;48.200;16.332;2023-02-01T00:36:24;4.40;99.90
13880;DHT22;7010;48.200;16.332;2023-02-01T00:38:53;4.40;99.90
13880;DHT22;7010;48.200;16.332;2023-02-01T00:41:22;4.50;99.90
13880;DHT22;7010;48.200;16.332;2023-02-01T00:43:51;4.50;99.90
13880;DHT22;7010;48.200;16.332;2023-02-01T00:46:19;4.50;99.90
13880;DHT22;7010;48.200;16.332;2023-02-01T00:48:48;4.50;99.90
13880;DHT22;7010;48.200;16.332;2023-02-01T00:51:20;4.50;99.90
13880;DHT22;7010;48.200;16.332;2023-02-01T00:53:49;4.50;99.90
13880;DHT22;7010;48.200;16.332;2023-02-01T00:56:17;4.50;99.90
13880;DHT22;7010;48.200;16.332;2023-02-01T00:58:46;4.50;99.90
13880;DHT22;7010;48.200;16.332;2023-02-01T01:01:17;4.50;99.90
13880;DHT22;7010;48.200;16.332;2023-02-01T01:03:47;4.40;99.90
13880;DHT22;7010;48.200;16.332;2023-02-01T01:06:21;4.50;99.90
13880;DHT22;7010;48.200;16.332;2023-02-01T01:08:50;4.40;99.90
13880;DHT22;7010;48.200;16.332;2023-02-01T01:11:21;4.50;99.90
13880;DHT22;7010;48.200;16.332;2023-02-01T01:13:51;4.50;99.90
13880;DHT22;7010;48.200;16.332;2023-02-01T01:16:20;4.50;99.90
13880;DHT22;7010;48.200;16.332;2023-02-01T01:18:49;4.50;99.90
13880;DHT22;7010;48.200;16.332;2023-02-01T01:21:19;4.50;99.90
13880;DHT22;7010;48.200;16.332;2023-02-01T01:23:48;4.50;99.90
13880;DHT22;7010;48.200;16.332;2023-02-01T01:26:17;4.50;99.90
13880;DHT22;7010;48.200;16.332;2023-02-01T01:28:46;4.50;99.90
13880;DHT22;7010;48.200;16.332;2023-02-01T01:31:17;4.50;99.90
13880;DHT22;7010;48.200;16.332;2023-02-01T01:33:48;4.50;99.90
13880;DHT22;7010;48.200;16.332;2023-02-01T01:36:18;4.50;99.90
13880;DHT22;7010;48.200;16.332;2023-02-01T01:38:47;4.50;99.90
13880;DHT22;7010;48.200;16.332;2023-02-01T01:41:17;4.50;99.90
13880;DHT22;7010;48.200;16.332;2023-02-01T01:43:55;4.50;99.90
13880;DHT22;7010;48.200;16.332;2023-02-01T01:46:25;4.50;99.90
13880;DHT22;7010;48.200;16.332;2023-02-01T01:49:00;4.50;99.90
13880;DHT22;7010;48.200;16.332;2023-02-01T01:51:32;4.50;99.90
13880;DHT22;7010;48.200;16.332;2023-02-01T01:54:08;4.50;99.90
13880;DHT22;7010;48.200;16.332;2023-02-01T01:56:39;4.50;99.90
13880;DHT22;7010;48.200;16.332;2023-02-01T01:59:09;4.50;99.90
13880;DHT22;7010;48.200;16.332;2023-02-01T02:01:38;4.40;99.90
13880;DHT22;7010;48.200;16.332;2023-02-01T02:04:06;4.50;99.90
13880;DHT22;7010;48.200;16.332;2023-02-01T02:06:40;4.50;99.90
13880;DHT22;7010;48.200;16.332;2023-02-01T02:09:12;4.50;99.90
13880;DHT22;7010;48.200;16.332;2023-02-01T02:11:40;4.50;99.90
13880;DHT22;7010;48.200;16.332;2023-02-01T02:14:11;4.50;99.90
13880;DHT22;7010;48.200;16.332;2023-02-01T02:16:55;4.60;99.90
13880;DHT22;7010;48.200;16.332;2023-02-01T02:32:23;4.60;99.90
13880;DHT22;7010;48.200;16.332;2023-02-01T02:34:58;4.50;99.90
13880;DHT22;7010;48.200;16.332;2023-02-01T02:37:38;4.60;99.90
13880;DHT22;7010;48.200;16.332;2023-02-01T02:40:15;4.60;99.90
13880;DHT22;7010;48.200;16.332;2023-02-01T02:42:59;4.60;99.90
13880;DHT22;7010;48.200;16.332;2023-02-01T02:45:50;4.50;99.90
13880;DHT22;7010;48.200;16.332;2023-02-01T02:48:42;4.50;99.90
13880;DHT22;7010;48.200;16.332;2023-02-01T02:51:15;4.50;99.90
13880;DHT22;7010;48.200;16.332;2023-02-01T02:54:08;4.50;99.90
13880;DHT22;7010;48.200;16.332;2023-02-01T02:56:57;4.60;99.90
13880;DHT22;7010;48.200;16.332;2023-02-01T02:59:44;4.60;99.90
13880;DHT22;7010;48.200;16.332;2023-02-01T03:02:32;4.50;99.90
13880;DHT22;7010;48.200;16.332;2023-02-01T03:05:17;4.50;99.90
13880;DHT22;7010;48.200;16.332;2023-02-01T03:08:01;4.50;99.90
13880;DHT22;7010;48.200;16.332;2023-02-01T03:10:38;4.50;99.90
13880;DHT22;7010;48.200;16.332;2023-02-01T03:13:13;4.50;99.90
13880;DHT22;7010;48.200;16.332;2023-02-01T03:15:49;4.40;99.90
13880;DHT22;7010;48.200;16.332;2023-02-01T03:18:23;4.40;99.90
13880;DHT22;7010;48.200;16.332;2023-02-01T03:20:53;4.40;99.90
13880;DHT22;7010;48.200;16.332;2023-02-01T03:23:29;4.30;99.90
13880;DHT22;7010;48.200;16.332;2023-02-01T03:25:59;4.30;99.90
13880;DHT22;7010;48.200;16.332;2023-02-01T03:28:30;4.40;99.90
13880;DHT22;7010;48.200;16.332;2023-02-01T03:31:01;4.30;99.90
13880;DHT22;7010;48.200;16.332;2023-02-01T03:33:30;4.40;99.90
13880;DHT22;7010;48.200;16.332;2023-02-01T03:36:08;4.40;99.90
13880;DHT22;7010;48.200;16.332;2023-02-01T03:38:43;4.50;99.90
13880;DHT22;7010;48.200;16.332;2023-02-01T03:41:20;4.50;99.90
13880;DHT22;7010;48.200;16.332;2023-02-01T03:43:56;4.50;99.90
13880;DHT22;7010;48.200;16.332;2023-02-01T03:46:30;4.50;99.90
13880;DHT22;7010;48.200;16.332;2023-02-01T03:49:02;4.50;99.90
13880;DHT22;7010;48.200;16.332;2023-02-01T03:51:32;4.40;99.90
13880;DHT22;7010;48.200;16.332;2023-02-01T03:54:04;4.50;99.90
13880;DHT22;7010;48.200;16.332;2023-02-01T03:56:36;4.50;99.90
13880;DHT22;7010;48.200;16.332;2023-02-01T03:59:06;4.50;99.90
13880;DHT22;7010;48.200;16.332;2023-02-01T04:01:35;4.50;99.90
13880;DHT22;7010;48.200;16.332;2023-02-01T04:04:04;4.50;99.90
13880;DHT22;7010;48.200;16.332;2023-02-01T04:06:32;4.50;99.90
13880;DHT22;7010;48.200;16.332;2023-02-01T04:09:02;4.50;99.90
13880;DHT22;7010;48.200;16.332;2023-02-01T04:11:30;4.50;99.90
13880;DHT22;7010;48.200;16.332;2023-02-01T04:13:59;4.50;99.90
13880;DHT22;7010;48.200;16.332;2023-02-01T04:16:31;4.60;99.90
13880;DHT22;7010;48.200;16.332;2023-02-01T04:19:00;4.60;99.90
13880;DHT22;7010;48.200;16.332;2023-02-01T04:21:29;4.60;99.90
13880;DHT22;7010;48.200;16.332;2023-02-01T04:23:57;4.60;99.90
13880;DHT22;7010;48.200;16.332;2023-02-01T04:26:27;4.70;99.90
13880;DHT22;7010;48.200;16.332;2023-02-01T04:28:55;4.60;99.90
13880;DHT22;7010;48.200;16.332;2023-02-01T04:31:24;4.70;99.90
13880;DHT22;7010;48.200;16.332;2023-02-01T04:33:54;4.70;99.90
13880;DHT22;7010;48.200;16.332;2023-02-01T04:36:24;4.80;99.90
13880;DHT22;7010;48.200;16.332;2023-02-01T04:38:53;4.80;99.90
13880;DHT22;7010;48.200;16.332;2023-02-01T04:41:21;4.80;99.90
13880;DHT22;7010;48.200;16.332;2023-02-01T04:43:51;4.80;99.90
13880;DHT22;7010;48.200;16.332;2023-02-01T04:46:20;4.80;99.90
13880;DHT22;7010;48.200;16.332;2023-02-01T04:48:48;4.80;99.90
13880;DHT22;7010;48.200;16.332;2023-02-01T04:51:16;4.80;99.90
13880;DHT22;7010;48.200;16.332;2023-02-01T04:53:45;4.80;99.90
13880;DHT22;7010;48.200;16.332;2023-02-01T04:56:13;4.90;99.90
13880;DHT22;7010;48.200;16.332;2023-02-01T04:58:41;4.80;99.90
13880;DHT22;7010;48.200;16.332;2023-02-01T05:01:11;4.80;99.90
13880;DHT22;7010;48.200;16.332;2023-02-01T05:03:40;4.80;99.90
13880;DHT22;7010;48.200;16.332;2023-02-01T05:06:08;4.90;99.90
13880;DHT22;7010;48.200;16.332;2023-02-01T05:08:36;4.90;99.90
13880;DHT22;7010;48.200;16.332;2023-02-01T05:11:04;4.90;99.90
13880;DHT22;7010;48.200;16.332;2023-02-01T05:13:33;4.90;99.90
13880;DHT22;7010;48.200;16.332;2023-02-01T05:16:16;4.90;99.90
13880;DHT22;7010;48.200;16.332;2023-02-01T05:18:45;4.90;99.90
13880;DHT22;7010;48.200;16.332;2023-02-01T05:21:13;5.00;99.90
13880;DHT22;7010;48.200;16.332;2023-02-01T05:23:41;5.00;99.90
13880;DHT22;7010;48.200;16.332;2023-02-01T05:26:27;4.90;99.90
13880;DHT22;7010;48.200;16.332;2023-02-01T05:28:55;5.00;99.90
13880;DHT22;7010;48.200;16.332;2023-02-01T05:31:25;5.00;99.90
13880;DHT22;7010;48.200;16.332;2023-02-01T05:33:54;5.00;99.90
13880;DHT22;7010;48.200;16.332;2023-02-01T05:36:23;4.90;99.90
13880;DHT22;7010;48.200;16.332;2023-02-01T05:38:51;4.90;99.90
13880;DHT22;7010;48.200;16.332;2023-02-01T05:41:19;4.80;99.90
13880;DHT22;7010;48.200;16.332;2023-02-01T05:43:47;4.70;99.90
13880;DHT22;7010;48.200;16.332;2023-02-01T05:46:16;4.80;99.90
13880;DHT22;7010;48.200;16.332;2023-02-01T05:48:46;4.70;99.90
13880;DHT22;7010;48.200;16.332;2023-02-01T05:51:14;4.80;99.90
13880;DHT22;7010;48.200;16.332;2023-02-01T05:53:43;4.80;99.90
13880;DHT22;7010;48.200;16.332;2023-02-01T05:56:11;4.80;99.90
13880;DHT22;7010;48.200;16.332;2023-02-01T05:58:39;4.80;99.90
13880;DHT22;7010;48.200;16.332;2023-02-01T06:01:07;4.80;99.90
13880;DHT22;7010;48.200;16.332;2023-02-01T06:03:36;4.90;99.90
13880;DHT22;7010;48.200;16.332;2023-02-01T06:06:06;4.90;99.90
13880;DHT22;7010;48.200;16.332;2023-02-01T06:08:34;5.00;99.90
13880;DHT22;7010;48.200;16.332;2023-02-01T06:11:04;5.00;99.90
13880;DHT22;7010;48.200;16.332;2023-02-01T06:13:33;5.10;99.90
13880;DHT22;7010;48.200;16.332;2023-02-01T06:16:02;5.00;99.90
13880;DHT22;7010;48.200;16.332;2023-02-01T06:18:31;5.00;99.90
13880;DHT22;7010;48.200;16.332;2023-02-01T06:21:00;5.10;99.90
13880;DHT22;7010;48.200;16.332;2023-02-01T06:23:30;5.10;99.90
13880;DHT22;7010;48.200;16.332;2023-02-01T06:26:00;5.10;99.90
13880;DHT22;7010;48.200;16.332;2023-02-01T06:28:29;5.20;99.90
13880;DHT22;7010;48.200;16.332;2023-02-01T06:30:57;5.20;99.90
13880;DHT22;7010;48.200;16.332;2023-02-01T06:33:26;5.20;99.90
13880;DHT22;7010;48.200;16.332;2023-02-01T06:35:57;5.20;99.90
13880;DHT22;7010;48.200;16.332;2023-02-01T06:38:26;5.20;99.90
13880;DHT22;7010;48.200;16.332;2023-02-01T06:40:57;5.20;99.90
13880;DHT22;7010;48.200;16.332;2023-02-01T06:43:26;5.30;99.90
13880;DHT22;7010;48.200;16.332;2023-02-01T06:46:00;5.30;99.90
13880;DHT22;7010;48.200;16.332;2023-02-01T06:48:29;5.40;99.90
13880;DHT22;7010;48.200;16.332;2023-02-01T06:50:57;5.40;99.90
13880;DHT22;7010;48.200;16.332;2023-02-01T06:53:26;5.40;99.90
13880;DHT22;7010;48.200;16.332;2023-02-01T06:55:57;5.40;99.90
13880;DHT22;7010;48.200;16.332;2023-02-01T06:58:28;5.40;99.90
13880;DHT22;7010;48.200;16.332;2023-02-01T07:00:57;5.30;99.90
13880;DHT22;7010;48.200;16.332;2023-02-01T07:03:25;5.20;99.90
13880;DHT22;7010;48.200;16.332;2023-02-01T07:05:56;5.20;99.90
13880;DHT22;7010;48.200;16.332;2023-02-01T07:08:27;5.20;99.90
13880;DHT22;7010;48.200;16.332;2023-02-01T07:10:56;5.20;99.90
13880;DHT22;7010;48.200;16.332;2023-02-01T07:13:25;5.10;99.90
13880;DHT22;7010;48.200;16.332;2023-02-01T07:15:53;5.20;99.90
13880;DHT22;7010;48.200;16.332;2023-02-01T07:18:21;5.20;99.90
13880;DHT22;7010;48.200;16.332;2023-02-01T07:20:50;5.30;99.90
13880;DHT22;7010;48.200;16.332;2023-02-01T07:23:19;5.30;99.90
13880;DHT22;7010;48.200;16.332;2023-02-01T07:25:47;5.30;99.90
13880;DHT22;7010;48.200;16.332;2023-02-01T07:28:17;5.30;99.90
13880;DHT22;7010;48.200;16.332;2023-02-01T07:30:45;5.40;99.90
13880;DHT22;7010;48.200;16.332;2023-02-01T07:33:19;5.40;99.90
13880;DHT22;7010;48.200;16.332;2023-02-01T07:35:48;5.40;99.90
13880;DHT22;7010;48.200;16.332;2023-02-01T07:38:17;5.40;99.90
13880;DHT22;7010;48.200;16.332;2023-02-01T07:40:46;5.40;99.90
13880;DHT22;7010;48.200;16.332;2023-02-01T07:43:14;5.50;99.90
13880;DHT22;7010;48.200;16.332;2023-02-01T07:45:50;5.50;99.90
13880;DHT22;7010;48.200;16.332;2023-02-01T07:48:19;5.50;99.90
13880;DHT22;7010;48.200;16.332;2023-02-01T07:50:47;5.50;99.90
13880;DHT22;7010;48.200;16.332;2023-02-01T07:53:16;5.60;99.90
13880;DHT22;7010;48.200;16.332;2023-02-01T07:55:44;5.60;99.90
13880;DHT22;7010;48.200;16.332;2023-02-01T07:58:12;5.60;99.90
13880;DHT22;7010;48.200;16.332;2023-02-01T08:00:41;5.60;99.90
13880;DHT22;7010;48.200;16.332;2023-02-01T08:03:27;5.60;99.90
13880;DHT22;7010;48.200;16.332;2023-02-01T08:05:56;5.60;99.90
13880;DHT22;7010;48.200;16.332;2023-02-01T08:08:24;5.60;99.90
13880;DHT22;7010;48.200;16.332;2023-02-01T08:10:57;5.60;99.90
13880;DHT22;7010;48.200;16.332;2023-02-01T08:13:25;5.50;99.90
13880;DHT22;7010;48.200;16.332;2023-02-01T08:15:57;5.40;99.90
13880;DHT22;7010;48.200;16.332;2023-02-01T08:18:28;5.30;99.90
13880;DHT22;7010;48.200;16.332;2023-02-01T08:20:56;5.20;99.90
13880;DHT22;7010;48.200;16.332;2023-02-01T08:23:25;5.20;99.90
13880;DHT22;7010;48.200;16.332;2023-02-01T08:25:53;5.20;99.90
13880;DHT22;7010;48.200;16.332;2023-02-01T08:28:21;5.30;99.90
13880;DHT22;7010;48.200;16.332;2023-02-01T08:30:49;5.40;99.90
13880;DHT22;7010;48.200;16.332;2023-02-01T08:33:18;5.40;99.90
13880;DHT22;7010;48.200;16.332;2023-02-01T08:35:47;5.50;99.90
13880;DHT22;7010;48.200;16.332;2023-02-01T08:38:16;5.60;99.90
13880;DHT22;7010;48.200;16.332;2023-02-01T08:40:44;5.60;99.90
13880;DHT22;7010;48.200;16.332;2023-02-01T08:43:13;5.70;99.90
13880;DHT22;7010;48.200;16.332;2023-02-01T08:45:41;5.70;99.90
13880;DHT22;7010;48.200;16.332;2023-02-01T08:48:09;5.80;99.90
13880;DHT22;7010;48.200;16.332;2023-02-01T08:50:38;5.80;99.90
13880;DHT22;7010;48.200;16.332;2023-02-01T08:53:07;5.80;99.90
13880;DHT22;7010;48.200;16.332;2023-02-01T08:55:36;5.90;99.90
13880;DHT22;7010;48.200;16.332;2023-02-01T08:58:04;5.90;99.90
13880;DHT22;7010;48.200;16.332;2023-02-01T09:00:32;5.90;99.90
13880;DHT22;7010;48.200;16.332;2023-02-01T09:03:00;6.00;99.90
13880;DHT22;7010;48.200;16.332;2023-02-01T09:05:28;5.90;99.90
13880;DHT22;7010;48.200;16.332;2023-02-01T09:08:16;6.00;99.90
13880;DHT22;7010;48.200;16.332;2023-02-01T09:10:45;6.00;99.90
13880;DHT22;7010;48.200;16.332;2023-02-01T09:13:13;6.00;99.90
13880;DHT22;7010;48.200;16.332;2023-02-01T09:15:42;6.00;99.90
13880;DHT22;7010;48.200;16.332;2023-02-01T09:18:10;6.00;99.90
13880;DHT22;7010;48.200;16.332;2023-02-01T09:20:38;5.80;99.90
13880;DHT22;7010;48.200;16.332;2023-02-01T09:23:06;5.80;99.90
13880;DHT22;7010;48.200;16.332;2023-02-01T09:25:38;5.70;99.90
13880;DHT22;7010;48.200;16.332;2023-02-01T09:28:07;5.60;99.90
13880;DHT22;7010;48.200;16.332;2023-02-01T09:30:36;5.60;99.90
13880;DHT22;7010;48.200;16.332;2023-02-01T09:33:05;5.60;99.90
13880;DHT22;7010;48.200;16.332;2023-02-01T09:35:33;5.60;99.90
13880;DHT22;7010;48.200;16.332;2023-02-01T09:38:01;5.60;99.90
13880;DHT22;7010;48.200;16.332;2023-02-01T09:40:29;5.60;99.90
13880;DHT22;7010;48.200;16.332;2023-02-01T09:48:19;5.60;99.90
13880;DHT22;7010;48.200;16.332;2023-02-01T09:50:50;5.50;99.90
13880;DHT22;7010;48.200;16.332;2023-02-01T09:53:25;5.40;99.90
13880;DHT22;7010;48.200;16.332;2023-02-01T09:55:59;5.40;99.90
13880;DHT22;7010;48.200;16.332;2023-02-01T09:58:35;5.30;99.90
13880;DHT22;7010;48.200;16.332;2023-02-01T10:01:14;5.30;99.90
13880;DHT22;7010;48.200;16.332;2023-02-01T10:03:45;5.30;99.90
13880;DHT22;7010;48.200;16.332;2023-02-01T10:06:25;5.40;99.90
13880;DHT22;7010;48.200;16.332;2023-02-01T10:09:06;5.40;99.90
13880;DHT22;7010;48.200;16.332;2023-02-01T10:11:45;5.50;99.90
13880;DHT22;7010;48.200;16.332;2023-02-01T10:14:41;5.60;99.90
13880;DHT22;7010;48.200;16.332;2023-02-01T10:17:22;5.70;99.90
13880;DHT22;7010;48.200;16.332;2023-02-01T10:20:03;5.70;99.90
13880;DHT22;7010;48.200;16.332;2023-02-01T10:22:40;5.80;99.90
13880;DHT22;7010;48.200;16.332;2023-02-01T10:25:34;5.90;99.90
13880;DHT22;7010;48.200;16.332;2023-02-01T10:28:04;6.00;99.90
13880;DHT22;7010;48.200;16.332;2023-02-01T10:30:38;6.10;99.90
13880;DHT22;7010;48.200;16.332;2023-02-01T10:33:15;6.20;99.90
13880;DHT22;7010;48.200;16.332;2023-02-01T10:35:46;6.20;99.90
13880;DHT22;7010;48.200;16.332;2023-02-01T10:38:22;6.40;99.90
13880;DHT22;7010;48.200;16.332;2023-02-01T10:40:53;6.60;99.90
13880;DHT22;7010;48.200;16.332;2023-02-01T10:43:23;6.90;99.90
13880;DHT22;7010;48.200;16.332;2023-02-01T10:45:51;7.10;99.90
13880;DHT22;7010;48.200;16.332;2023-02-01T10:48:19;7.00;99.90
13880;DHT22;7010;48.200;16.332;2023-02-01T10:50:54;6.90;99.90
13880;DHT22;7010;48.200;16.332;2023-02-01T10:53:28;6.90;99.90
13880;DHT22;7010;48.200;16.332;2023-02-01T10:56:05;6.80;99.90
13880;DHT22;7010;48.200;16.332;2023-02-01T10:58:36;6.60;99.90
13880;DHT22;7010;48.200;16.332;2023-02-01T11:01:06;6.30;99.90
13880;DHT22;7010;48.200;16.332;2023-02-01T11:03:42;6.00;99.90
13880;DHT22;7010;48.200;16.332;2023-02-01T11:06:24;5.80;99.90
13880;DHT22;7010;48.200;16.332;2023-02-01T11:08:56;5.70;99.90
13880;DHT22;7010;48.200;16.332;2023-02-01T11:11:25;5.60;99.90
13880;DHT22;7010;48.200;16.332;2023-02-01T11:13:56;5.70;99.90
13880;DHT22;7010;48.200;16.332;2023-02-01T11:16:35;5.70;99.90
13880;DHT22;7010;48.200;16.332;2023-02-01T11:19:04;5.70;99.90
13880;DHT22;7010;48.200;16.332;2023-02-01T11:21:34;5.70;99.90
13880;DHT22;7010;48.200;16.332;2023-02-01T11:24:05;5.60;99.90
13880;DHT22;7010;48.200;16.332;2023-02-01T11:26:39;5.60;99.90
13880;DHT22;7010;48.200;16.332;2023-02-01T11:29:12;5.40;99.90
13880;DHT22;7010;48.200;16.332;2023-02-01T11:31:41;5.30;99.90
13880;DHT22;7010;48.200;16.332;2023-02-01T11:34:14;5.20;99.90
13880;DHT22;7010;48.200;16.332;2023-02-01T11:36:47;5.10;99.90
13880;DHT22;7010;48.200;16.332;2023-02-01T11:39:24;4.90;99.90
13880;DHT22;7010;48.200;16.332;2023-02-01T11:42:02;4.80;99.90
13880;DHT22;7010;48.200;16.332;2023-02-01T11:44:34;4.70;99.90
13880;DHT22;7010;48.200;16.332;2023-02-01T11:47:21;4.70;99.90
13880;DHT22;7010;48.200;16.332;2023-02-01T11:49:51;4.70;99.90
13880;DHT22;7010;48.200;16.332;2023-02-01T11:52:44;4.70;99.90
13880;DHT22;7010;48.200;16.332;2023-02-01T11:58:43;4.70;99.90
13880;DHT22;7010;48.200;16.332;2023-02-01T12:01:30;4.80;99.90
13880;DHT22;7010;48.200;16.332;2023-02-01T12:04:15;4.90;99.90
13880;DHT22;7010;48.200;16.332;2023-02-01T12:06:50;4.90;99.90
13880;DHT22;7010;48.200;16.332;2023-02-01T12:09:44;5.00;99.90
13880;DHT22;7010;48.200;16.332;2023-02-01T12:12:19;5.10;99.90
13880;DHT22;7010;48.200;16.332;2023-02-01T12:15:18;5.10;99.90
13880;DHT22;7010;48.200;16.332;2023-02-01T12:18:08;5.20;99.90
13880;DHT22;7010;48.200;16.332;2023-02-01T12:21:04;5.30;99.90
13880;DHT22;7010;48.200;16.332;2023-02-01T12:23:56;5.40;99.90
13880;DHT22;7010;48.200;16.332;2023-02-01T12:26:51;5.30;99.90
13880;DHT22;7010;48.200;16.332;2023-02-01T12:29:29;5.30;99.90
13880;DHT22;7010;48.200;16.332;2023-02-01T12:32:08;5.30;99.90
13880;DHT22;7010;48.200;16.332;2023-02-01T12:35:09;5.20;99.90
13880;DHT22;7010;48.200;16.332;2023-02-01T12:37:51;5.30;99.90
13880;DHT22;7010;48.200;16.332;2023-02-01T12:40:32;5.30;99.90
13880;DHT22;7010;48.200;16.332;2023-02-01T12:43:11;5.40;99.90
13880;DHT22;7010;48.200;16.332;2023-02-01T12:45:47;5.60;99.90
13880;DHT22;7010;48.200;16.332;2023-02-01T12:48:25;5.70;99.90
13880;DHT22;7010;48.200;16.332;2023-02-01T12:50:56;6.10;99.90
13880;DHT22;7010;48.200;16.332;2023-02-01T12:53:37;6.60;99.90
13880;DHT22;7010;48.200;16.332;2023-02-01T12:56:13;7.20;99.90
13880;DHT22;7010;48.200;16.332;2023-02-01T12:58:46;7.70;99.90
13880;DHT22;7010;48.200;16.332;2023-02-01T13:01:20;8.00;99.90
13880;DHT22;7010;48.200;16.332;2023-02-01T13:03:56;8.20;99.90
13880;DHT22;7010;48.200;16.332;2023-02-01T13:06:29;8.10;99.90
13880;DHT22;7010;48.200;16.332;2023-02-01T13:09:03;8.10;99.90
13880;DHT22;7010;48.200;16.332;2023-02-01T13:11:34;7.80;99.90
13880;DHT22;7010;48.200;16.332;2023-02-01T13:14:11;7.70;99.90
13880;DHT22;7010;48.200;16.332;2023-02-01T13:16:43;7.60;99.90
13880;DHT22;7010;48.200;16.332;2023-02-01T13:19:16;7.50;99.90
13880;DHT22;7010;48.200;16.332;2023-02-01T13:21:48;7.30;99.90
13880;DHT22;7010;48.200;16.332;2023-02-01T13:24:30;7.40;99.90
13880;DHT22;7010;48.200;16.332;2023-02-01T13:27:01;7.70;99.90
13880;DHT22;7010;48.200;16.332;2023-02-01T13:29:32;7.90;99.90
13880;DHT22;7010;48.200;16.332;2023-02-01T13:32:13;8.20;99.90
13880;DHT22;7010;48.200;16.332;2023-02-01T13:38:19;8.50;99.90
13880;DHT22;7010;48.200;16.332;2023-02-01T13:41:04;8.40;99.90
13880;DHT22;7010;48.200;16.332;2023-02-01T13:43:36;8.40;99.90
13880;DHT22;7010;48.200;16.332;2023-02-01T13:46:10;8.00;99.90
13880;DHT22;7010;48.200;16.332;2023-02-01T13:48:47;7.70;99.90
13880;DHT22;7010;48.200;16.332;2023-02-01T13:51:33;7.40;99.90
13880;DHT22;7010;48.200;16.332;2023-02-01T13:54:02;7.40;99.90
13880;DHT22;7010;48.200;16.332;2023-02-01T13:56:40;7.40;99.90
13880;DHT22;7010;48.200;16.332;2023-02-01T14:02:49;7.00;99.90
13880;DHT22;7010;48.200;16.332;2023-02-01T14:08:44;6.80;99.90
13880;DHT22;7010;48.200;16.332;2023-02-01T14:11:38;7.00;99.90
13880;DHT22;7010;48.200;16.332;2023-02-01T14:17:36;7.10;99.90
13880;DHT22;7010;48.200;16.332;2023-02-01T14:23:29;7.00;99.90
13880;DHT22;7010;48.200;16.332;2023-02-01T14:26:17;7.00;99.90
13880;DHT22;7010;48.200;16.332;2023-02-01T14:28:51;6.90;99.90
13880;DHT22;7010;48.200;16.332;2023-02-01T14:31:47;6.80;99.90
13880;DHT22;7010;48.200;16.332;2023-02-01T14:34:21;6.70;99.90
13880;DHT22;7010;48.200;16.332;2023-02-01T14:36:55;6.60;99.90
13880;DHT22;7010;48.200;16.332;2023-02-01T14:39:30;6.50;99.90
13880;DHT22;7010;48.200;16.332;2023-02-01T14:42:03;6.40;99.90
13880;DHT22;7010;48.200;16.332;2023-02-01T14:44:35;6.20;99.90
13880;DHT22;7010;48.200;16.332;2023-02-01T14:50:32;5.90;99.90
13880;DHT22;7010;48.200;16.332;2023-02-01T14:53:17;5.90;99.90
13880;DHT22;7010;48.200;16.332;2023-02-01T14:55:50;5.80;99.90
13880;DHT22;7010;48.200;16.332;2023-02-01T14:58:29;5.80;99.90
13880;DHT22;7010;48.200;16.332;2023-02-01T15:01:02;5.70;99.90
13880;DHT22;7010;48.200;16.332;2023-02-01T15:03:47;5.70;99.90
13880;DHT22;7010;48.200;16.332;2023-02-01T15:06:30;5.70;99.90
13880;DHT22;7010;48.200;16.332;2023-02-01T15:09:02;5.70;99.90
13880;DHT22;7010;48.200;16.332;2023-02-01T15:11:32;5.70;99.90
13880;DHT22;7010;48.200;16.332;2023-02-01T15:14:00;5.60;99.90
13880;DHT22;7010;48.200;16.332;2023-02-01T15:16:28;5.60;99.90
13880;DHT22;7010;48.200;16.332;2023-02-01T15:19:14;5.50;99.90
13880;DHT22;7010;48.200;16.332;2023-02-01T15:21:44;5.50;99.90
13880;DHT22;7010;48.200;16.332;2023-02-01T15:24:17;5.50;99.90
13880;DHT22;7010;48.200;16.332;2023-02-01T15:26:48;5.40;99.90
13880;DHT22;7010;48.200;16.332;2023-02-01T15:29:17;5.40;99.90
13880;DHT22;7010;48.200;16.332;2023-02-01T15:31:48;5.40;99.90
13880;DHT22;7010;48.200;16.332;2023-02-01T15:34:18;5.40;99.90
13880;DHT22;7010;48.200;16.332;2023-02-01T15:36:47;5.30;99.90
13880;DHT22;7010;48.200;16.332;2023-02-01T15:42:55;5.40;99.90
13880;DHT22;7010;48.200;16.332;2023-02-01T15:45:26;5.40;99.90
13880;DHT22;7010;48.200;16.332;2023-02-01T15:47:56;5.40;99.90
13880;DHT22;7010;48.200;16.332;2023-02-01T15:50:26;5.40;99.90
13880;DHT22;7010;48.200;16.332;2023-02-01T15:52:56;5.40;99.90
13880;DHT22;7010;48.200;16.332;2023-02-01T15:55:30;5.40;99.90
13880;DHT22;7010;48.200;16.332;2023-02-01T15:58:05;5.50;99.90
13880;DHT22;7010;48.200;16.332;2023-02-01T16:00:42;5.50;99.90
13880;DHT22;7010;48.200;16.332;2023-02-01T16:03:26;5.40;99.90
13880;DHT22;7010;48.200;16.332;2023-02-01T16:05:56;5.40;99.90
13880;DHT22;7010;48.200;16.332;2023-02-01T16:08:27;5.40;99.90
13880;DHT22;7010;48.200;16.332;2023-02-01T16:11:01;5.50;99.90
13880;DHT22;7010;48.200;16.332;2023-02-01T16:13:31;5.50;99.90
13880;DHT22;7010;48.200;16.332;2023-02-01T16:15:59;5.50;99.90
13880;DHT22;7010;48.200;16.332;2023-02-01T16:18:27;5.50;99.90
13880;DHT22;7010;48.200;16.332;2023-02-01T16:20:56;5.60;99.90
13880;DHT22;7010;48.200;16.332;2023-02-01T16:23:24;5.50;99.90
13880;DHT22;7010;48.200;16.332;2023-02-01T16:26:06;5.50;99.90
13880;DHT22;7010;48.200;16.332;2023-02-01T16:28:40;5.60;99.90
13880;DHT22;7010;48.200;16.332;2023-02-01T16:31:13;5.60;99.90
13880;DHT22;7010;48.200;16.332;2023-02-01T16:33:48;5.60;99.90
13880;DHT22;7010;48.200;16.332;2023-02-01T16:36:26;5.60;99.90
13880;DHT22;7010;48.200;16.332;2023-02-01T16:38:55;5.60;99.90
13880;DHT22;7010;48.200;16.332;2023-02-01T16:42:05;5.50;99.90
13880;DHT22;7010;48.200;16.332;2023-02-01T16:45:01;5.60;99.90
13880;DHT22;7010;48.200;16.332;2023-02-01T16:47:37;5.50;99.90
13880;DHT22;7010;48.200;16.332;2023-02-01T16:50:15;5.50;99.90
13880;DHT22;7010;48.200;16.332;2023-02-01T16:52:50;5.50;99.90
13880;DHT22;7010;48.200;16.332;2023-02-01T16:55:20;5.50;99.90
13880;DHT22;7010;48.200;16.332;2023-02-01T16:57:50;5.50;99.90
13880;DHT22;7010;48.200;16.332;2023-02-01T17:00:20;5.50;99.90
13880;DHT22;7010;48.200;16.332;2023-02-01T17:02:51;5.50;99.90
13880;DHT22;7010;48.200;16.332;2023-02-01T17:05:20;5.50;99.90
13880;DHT22;7010;48.200;16.332;2023-02-01T17:07:49;5.50;99.90